sensor_id;sensor_type;location;lat;lon;timestamp;pressure;altitude;pressure_sealevel;temperature;humidity
55032;BME280;40928;51.076;7.950;2023-06-26T00:00:14;96977.84;;;17.77;100.00
55032;BME280;40928;51.076;7.950;2023-06-26T00:02:40;96975.72;;;17.74;100.00
55032;BME280;40928;51.076;7.950;2023-06-26T00:05:06;96982.22;;;17.73;100.00
55032;BME280;40928;51.076;7.950;2023-06-26T00:07:32;96980.84;;;17.76;100.00
55032;BME280;40928;51.076;7.950;2023-06-26T00:10:01;96985.16;;;17.77;100.00
55032;BME280;40928;51.076;7.950;2023-06-26T00:12:28;96982.22;;;17.73;100.00
55032;BME280;40928;51.076;7.950;2023-06-26T00:14:54;96978.44;;;17.74;100.00
55032;BME280;40928;51.076;7.950;2023-06-26T00:17:20;96983.56;;;17.71;100.00
55032;BME280;40928;51.076;7.950;2023-06-26T00:19:45;96984.16;;;17.68;100.00
55032;BME280;40928;51.076;7.950;2023-06-26T00:22:11;96977.44;;;17.65;100.00
55032;BME280;40928;51.076;7.950;2023-06-26T00:24:36;96971.50;;;17.63;100.00
55032;BME280;40928;51.076;7.950;2023-06-26T00:27:02;96972.06;;;17.60;100.00
55032;BME280;40928;51.076;7.950;2023-06-26T00:29:28;96972.38;;;17.58;100.00
55032;BME280;40928;51.076;7.950;2023-06-26T00:31:53;96973.75;;;17.56;100.00
55032;BME280;40928;51.076;7.950;2023-06-26T00:34:19;96975.38;;;17.57;100.00
55032;BME280;40928;51.076;7.950;2023-06-26T00:36:45;96972.66;;;17.57;100.00
55032;BME280;40928;51.076;7.950;2023-06-26T00:39:11;96971.59;;;17.58;100.00
55032;BME280;40928;51.076;7.950;2023-06-26T00:41:37;96972.38;;;17.58;100.00
55032;BME280;40928;51.076;7.950;2023-06-26T00:44:06;96976.69;;;17.59;100.00
55032;BME280;40928;51.076;7.950;2023-06-26T00:46:33;96967.78;;;17.59;100.00
55032;BME280;40928;51.076;7.950;2023-06-26T00:49:04;96963.47;;;17.58;100.00
55032;BME280;40928;51.076;7.950;2023-06-26T00:51:31;96969.16;;;17.56;100.00
55032;BME280;40928;51.076;7.950;2023-06-26T00:53:57;96969.72;;;17.53;100.00
55032;BME280;40928;51.076;7.950;2023-06-26T00:56:22;96963.00;;;17.50;100.00
55032;BME280;40928;51.076;7.950;2023-06-26T00:58:48;96967.09;;;17.48;100.00
55032;BME280;40928;51.076;7.950;2023-06-26T01:01:14;96965.47;;;17.47;100.00
55032;BME280;40928;51.076;7.950;2023-06-26T01:03:50;96964.41;;;17.43;100.00
55032;BME280;40928;51.076;7.950;2023-06-26T01:06:20;96964.41;;;17.43;100.00
55032;BME280;40928;51.076;7.950;2023-06-26T01:09:05;96955.53;;;17.42;100.00
55032;BME280;40928;51.076;7.950;2023-06-26T01:11:30;96953.09;;;17.41;100.00
55032;BME280;40928;51.076;7.950;2023-06-26T01:13:59;96953.41;;;17.39;100.00
55032;BME280;40928;51.076;7.950;2023-06-26T01:16:27;96958.28;;;17.37;100.00
55032;BME280;40928;51.076;7.950;2023-06-26T01:18:55;96950.22;;;17.32;100.00
55032;BME280;40928;51.076;7.950;2023-06-26T01:21:22;96949.69;;;17.30;100.00
55032;BME280;40928;51.076;7.950;2023-06-26T01:24:28;96950.28;;;17.27;100.00
55032;BME280;40928;51.076;7.950;2023-06-26T01:26:58;96947.38;;;17.18;100.00
55032;BME280;40928;51.076;7.950;2023-06-26T01:29:25;96947.94;;;17.15;100.00
55032;BME280;40928;51.076;7.950;2023-06-26T01:31:51;96949.81;;;17.14;100.00
55032;BME280;40928;51.076;7.950;2023-06-26T01:34:17;96934.22;;;17.11;100.00
55032;BME280;40928;51.076;7.950;2023-06-26T01:36:46;96941.50;;;17.11;100.00
55032;BME280;40928;51.076;7.950;2023-06-26T01:39:18;96939.88;;;17.10;100.00
55032;BME280;40928;51.076;7.950;2023-06-26T01:41:43;96925.66;;;17.04;100.00
55032;BME280;40928;51.076;7.950;2023-06-26T01:47:05;96925.69;;;16.99;100.00
55032;BME280;40928;51.076;7.950;2023-06-26T01:49:53;96920.56;;;16.97;100.00
55032;BME280;40928;51.076;7.950;2023-06-26T01:52:32;96927.34;;;16.95;100.00
55032;BME280;40928;51.076;7.950;2023-06-26T01:55:22;96923.56;;;16.96;100.00
55032;BME280;40928;51.076;7.950;2023-06-26T01:57:52;96920.13;;;16.85;100.00
55032;BME280;40928;51.076;7.950;2023-06-26T02:00:20;96917.41;;;16.85;100.00
55032;BME280;40928;51.076;7.950;2023-06-26T02:02:47;96919.28;;;16.84;100.00
55032;BME280;40928;51.076;7.950;2023-06-26T02:05:13;96917.19;;;16.81;100.00
55032;BME280;40928;51.076;7.950;2023-06-26T02:07:39;96916.38;;;16.81;100.00
55032;BME280;40928;51.076;7.950;2023-06-26T02:10:05;96917.44;;;16.80;100.00
55032;BME280;40928;51.076;7.950;2023-06-26T02:12:32;96917.75;;;16.78;100.00
55032;BME280;40928;51.076;7.950;2023-06-26T02:14:58;96909.69;;;16.73;100.00
55032;BME280;40928;51.076;7.950;2023-06-26T02:17:24;96914.00;;;16.74;100.00
55032;BME280;40928;51.076;7.950;2023-06-26T02:19:52;96912.66;;;16.71;100.00
55032;BME280;40928;51.076;7.950;2023-06-26T02:22:18;96921.03;;;16.70;100.00
55032;BME280;40928;51.076;7.950;2023-06-26T02:24:44;96918.31;;;16.70;100.00
55032;BME280;40928;51.076;7.950;2023-06-26T02:27:10;96914.84;;;16.69;100.00
55032;BME280;40928;51.076;7.950;2023-06-26T02:29:36;96907.00;;;16.68;100.00
55032;BME280;40928;51.076;7.950;2023-06-26T02:32:02;96909.72;;;16.68;100.00
55032;BME280;40928;51.076;7.950;2023-06-26T02:34:27;96899.78;;;16.63;100.00
55032;BME280;40928;51.076;7.950;2023-06-26T02:36:53;96903.84;;;16.61;100.00
55032;BME280;40928;51.076;7.950;2023-06-26T02:39:22;96898.22;;;16.57;100.00
55032;BME280;40928;51.076;7.950;2023-06-26T02:41:48;96896.31;;;16.57;100.00
55032;BME280;40928;51.076;7.950;2023-06-26T02:44:15;96898.47;;;16.55;100.00
55032;BME280;40928;51.076;7.950;2023-06-26T02:46:40;96897.44;;;16.51;100.00
55032;BME280;40928;51.076;7.950;2023-06-26T02:49:07;96892.63;;;16.48;100.00
55032;BME280;40928;51.076;7.950;2023-06-26T02:51:33;96888.84;;;16.49;100.00
55032;BME280;40928;51.076;7.950;2023-06-26T02:54:02;96895.31;;;16.48;100.00
55032;BME280;40928;51.076;7.950;2023-06-26T02:56:27;96895.56;;;16.47;100.00
55032;BME280;40928;51.076;7.950;2023-06-26T02:58:57;96893.16;;;16.50;100.00
55032;BME280;40928;51.076;7.950;2023-06-26T03:01:24;96886.38;;;16.53;100.00
55032;BME280;40928;51.076;7.950;2023-06-26T03:03:50;96892.63;;;16.48;100.00
55032;BME280;40928;51.076;7.950;2023-06-26T03:06:17;96892.63;;;16.48;100.00
55032;BME280;40928;51.076;7.950;2023-06-26T03:08:44;96884.78;;;16.47;100.00
55032;BME280;40928;51.076;7.950;2023-06-26T03:11:11;96888.84;;;16.49;100.00
55032;BME280;40928;51.076;7.950;2023-06-26T03:13:37;96885.84;;;16.51;100.00
55032;BME280;40928;51.076;7.950;2023-06-26T03:16:04;96889.06;;;16.53;100.00
55032;BME280;40928;51.076;7.950;2023-06-26T03:18:30;96884.47;;;16.53;100.00
55032;BME280;40928;51.076;7.950;2023-06-26T03:20:56;96884.47;;;16.53;100.00
55032;BME280;40928;51.076;7.950;2023-06-26T03:23:23;96884.47;;;16.53;100.00
55032;BME280;40928;51.076;7.950;2023-06-26T03:25:49;96884.47;;;16.53;100.00
55032;BME280;40928;51.076;7.950;2023-06-26T03:28:25;96880.75;;;16.49;100.00
55032;BME280;40928;51.076;7.950;2023-06-26T03:30:51;96884.78;;;16.52;100.00
55032;BME280;40928;51.076;7.950;2023-06-26T03:33:17;96883.94;;;16.51;100.00
55032;BME280;40928;51.076;7.950;2023-06-26T03:35:43;96889.88;;;16.53;100.00
55032;BME280;40928;51.076;7.950;2023-06-26T03:38:11;96887.47;;;16.52;100.00
55032;BME280;40928;51.076;7.950;2023-06-26T03:40:37;96881.00;;;16.53;100.00
55032;BME280;40928;51.076;7.950;2023-06-26T03:43:02;96882.31;;;16.55;100.00
55032;BME280;40928;51.076;7.950;2023-06-26T03:45:36;96885.53;;;16.57;100.00
55032;BME280;40928;51.076;7.950;2023-06-26T03:48:03;96889.56;;;16.60;100.00
55032;BME280;40928;51.076;7.950;2023-06-26T03:50:29;96887.69;;;16.61;100.00
55032;BME280;40928;51.076;7.950;2023-06-26T03:52:56;96893.59;;;16.63;100.00
55032;BME280;40928;51.076;7.950;2023-06-26T03:55:21;96887.69;;;16.61;100.00
55032;BME280;40928;51.076;7.950;2023-06-26T03:57:48;96886.59;;;16.62;100.00
55032;BME280;40928;51.076;7.950;2023-06-26T04:00:14;96897.09;;;16.63;100.00
55032;BME280;40928;51.076;7.950;2023-06-26T04:02:40;96900.59;;;16.64;100.00
55032;BME280;40928;51.076;7.950;2023-06-26T04:05:06;96906.50;;;16.66;100.00
55032;BME280;40928;51.076;7.950;2023-06-26T04:07:33;96904.31;;;16.68;100.00
55032;BME280;40928;51.076;7.950;2023-06-26T04:09:59;96900.53;;;16.69;100.00
55032;BME280;40928;51.076;7.950;2023-06-26T04:12:26;96909.69;;;16.73;100.00
55032;BME280;40928;51.076;7.950;2023-06-26T04:14:51;96915.03;;;16.78;100.00
55032;BME280;40928;51.076;7.950;2023-06-26T04:17:17;96911.50;;;16.83;100.00
55032;BME280;40928;51.076;7.950;2023-06-26T04:19:42;96919.81;;;16.86;100.00
55032;BME280;40928;51.076;7.950;2023-06-26T04:22:08;96910.09;;;16.90;100.00
55032;BME280;40928;51.076;7.950;2023-06-26T04:24:33;96915.72;;;16.94;100.00
55032;BME280;40928;51.076;7.950;2023-06-26T04:26:59;96918.97;;;16.96;100.00
55032;BME280;40928;51.076;7.950;2023-06-26T04:29:26;96921.63;;;17.01;100.00
55032;BME280;40928;51.076;7.950;2023-06-26T04:31:52;96913.78;;;17.05;100.00
55032;BME280;40928;51.076;7.950;2023-06-26T04:34:26;96916.97;;;17.12;100.00
55032;BME280;40928;51.076;7.950;2023-06-26T04:36:51;96908.78;;;17.17;100.00
55032;BME280;40928;51.076;7.950;2023-06-26T04:39:17;96907.94;;;17.22;100.00
55032;BME280;40928;51.076;7.950;2023-06-26T04:41:43;96916.50;;;17.29;100.00
55032;BME280;40928;51.076;7.950;2023-06-26T04:44:09;96912.38;;;17.37;100.00
55032;BME280;40928;51.076;7.950;2023-06-26T04:46:34;96919.06;;;17.45;100.00
55032;BME280;40928;51.076;7.950;2023-06-26T04:49:00;96914.94;;;17.53;100.00
55032;BME280;40928;51.076;7.950;2023-06-26T04:51:28;96912.97;;;17.58;100.00
55032;BME280;40928;51.076;7.950;2023-06-26T04:53:54;96918.25;;;17.69;100.00
55032;BME280;40928;51.076;7.950;2023-06-26T04:56:19;96911.34;;;17.81;100.00
55032;BME280;40928;51.076;7.950;2023-06-26T04:58:45;96918.25;;;17.93;100.00
55032;BME280;40928;51.076;7.950;2023-06-26T05:01:10;96909.97;;;18.08;96.18
55032;BME280;40928;51.076;7.950;2023-06-26T05:03:39;96908.16;;;18.23;95.96
55032;BME280;40928;51.076;7.950;2023-06-26T05:06:05;96917.13;;;18.37;93.77
55032;BME280;40928;51.076;7.950;2023-06-26T05:08:31;96913.06;;;18.59;85.54
55032;BME280;40928;51.076;7.950;2023-06-26T05:10:56;96914.13;;;18.77;83.94
55032;BME280;40928;51.076;7.950;2023-06-26T05:13:26;96923.63;;;19.13;79.20
55032;BME280;40928;51.076;7.950;2023-06-26T05:15:52;96916.47;;;19.17;79.84
55032;BME280;40928;51.076;7.950;2023-06-26T05:18:18;96907.88;;;19.29;79.71
55032;BME280;40928;51.076;7.950;2023-06-26T05:20:44;96915.94;;;19.34;79.99
55032;BME280;40928;51.076;7.950;2023-06-26T05:23:13;96912.00;;;19.40;79.89
55032;BME280;40928;51.076;7.950;2023-06-26T05:25:39;96912.75;;;19.46;80.11
55032;BME280;40928;51.076;7.950;2023-06-26T05:28:05;96912.34;;;19.53;79.46
55032;BME280;40928;51.076;7.950;2023-06-26T05:30:32;96917.38;;;19.59;79.59
55032;BME280;40928;51.076;7.950;2023-06-26T05:33:01;96920.66;;;19.70;78.61
55032;BME280;40928;51.076;7.950;2023-06-26T05:35:29;96923.28;;;19.75;77.42
55032;BME280;40928;51.076;7.950;2023-06-26T05:37:56;96920.66;;;19.84;76.28
55032;BME280;40928;51.076;7.950;2023-06-26T05:40:22;96918.47;;;19.86;76.66
55032;BME280;40928;51.076;7.950;2023-06-26T05:42:49;96916.78;;;19.90;77.21
55032;BME280;40928;51.076;7.950;2023-06-26T05:45:16;96916.16;;;19.93;77.40
55032;BME280;40928;51.076;7.950;2023-06-26T05:47:42;96921.09;;;19.91;78.16
55032;BME280;40928;51.076;7.950;2023-06-26T05:50:09;96922.81;;;19.87;78.70
55032;BME280;40928;51.076;7.950;2023-06-26T05:52:35;96925.31;;;19.98;78.11
55032;BME280;40928;51.076;7.950;2023-06-26T05:55:02;96921.41;;;19.90;79.43
55032;BME280;40928;51.076;7.950;2023-06-26T05:57:29;96924.28;;;19.93;80.37
55032;BME280;40928;51.076;7.950;2023-06-26T05:59:55;96923.41;;;19.98;80.58
55032;BME280;40928;51.076;7.950;2023-06-26T06:02:21;96927.72;;;19.99;81.24
55032;BME280;40928;51.076;7.950;2023-06-26T06:04:46;96935.53;;;20.01;82.42
55032;BME280;40928;51.076;7.950;2023-06-26T06:07:12;96943.06;;;20.04;82.61
55032;BME280;40928;51.076;7.950;2023-06-26T06:09:38;96934.13;;;20.03;83.25
55032;BME280;40928;51.076;7.950;2023-06-26T06:12:08;96942.66;;;19.97;83.93
55032;BME280;40928;51.076;7.950;2023-06-26T06:14:34;96950.09;;;19.91;83.89
55032;BME280;40928;51.076;7.950;2023-06-26T06:17:00;96948.22;;;19.91;84.75
55032;BME280;40928;51.076;7.950;2023-06-26T06:19:26;96947.38;;;19.91;85.08
55032;BME280;40928;51.076;7.950;2023-06-26T06:21:51;96950.91;;;19.91;85.18
55032;BME280;40928;51.076;7.950;2023-06-26T06:24:17;96953.69;;;19.86;85.20
55032;BME280;40928;51.076;7.950;2023-06-26T06:26:42;96950.69;;;19.88;85.55
55032;BME280;40928;51.076;7.950;2023-06-26T06:29:08;96941.25;;;19.85;86.12
55032;BME280;40928;51.076;7.950;2023-06-26T06:31:34;96952.09;;;19.85;85.93
55032;BME280;40928;51.076;7.950;2023-06-26T06:33:59;96948.28;;;19.86;86.47
55032;BME280;40928;51.076;7.950;2023-06-26T06:36:25;96950.16;;;19.86;86.94
55032;BME280;40928;51.076;7.950;2023-06-26T06:38:51;96952.69;;;19.82;87.04
55032;BME280;40928;51.076;7.950;2023-06-26T06:41:16;96949.97;;;19.82;87.50
55032;BME280;40928;51.076;7.950;2023-06-26T06:43:42;96953.00;;;19.95;86.89
55032;BME280;40928;51.076;7.950;2023-06-26T06:46:08;96964.75;;;19.90;87.83
55032;BME280;40928;51.076;7.950;2023-06-26T06:48:34;96968.78;;;19.92;88.03
55032;BME280;40928;51.076;7.950;2023-06-26T06:50:59;96972.69;;;20.00;88.32
55032;BME280;40928;51.076;7.950;2023-06-26T06:53:25;96982.81;;;20.08;87.98
55032;BME280;40928;51.076;7.950;2023-06-26T06:55:50;96990.47;;;20.20;86.86
55032;BME280;40928;51.076;7.950;2023-06-26T06:58:16;97001.31;;;20.20;87.56
55032;BME280;40928;51.076;7.950;2023-06-26T07:00:44;96995.25;;;20.37;87.22
55032;BME280;40928;51.076;7.950;2023-06-26T07:03:10;96991.19;;;20.49;86.88
55032;BME280;40928;51.076;7.950;2023-06-26T07:05:36;96992.41;;;20.57;85.78
55032;BME280;40928;51.076;7.950;2023-06-26T07:08:02;96994.91;;;20.67;85.28
55032;BME280;40928;51.076;7.950;2023-06-26T07:10:29;96990.41;;;20.62;85.74
55032;BME280;40928;51.076;7.950;2023-06-26T07:12:54;96976.00;;;20.62;84.72
55032;BME280;40928;51.076;7.950;2023-06-26T07:15:20;96982.88;;;20.59;85.28
55032;BME280;40928;51.076;7.950;2023-06-26T07:17:46;96974.47;;;20.47;86.05
55032;BME280;40928;51.076;7.950;2023-06-26T07:20:11;96982.69;;;20.42;86.61
55032;BME280;40928;51.076;7.950;2023-06-26T07:22:41;96991.63;;;20.42;86.91
55032;BME280;40928;51.076;7.950;2023-06-26T07:25:07;96999.88;;;20.37;86.53
55032;BME280;40928;51.076;7.950;2023-06-26T07:27:35;96997.69;;;20.39;86.68
55032;BME280;40928;51.076;7.950;2023-06-26T07:30:01;97005.88;;;20.48;87.23
55032;BME280;40928;51.076;7.950;2023-06-26T07:34:52;97018.22;;;20.68;86.78
55032;BME280;40928;51.076;7.950;2023-06-26T07:37:18;97012.66;;;20.73;86.86
55032;BME280;40928;51.076;7.950;2023-06-26T07:39:43;97003.66;;;20.78;86.29
55032;BME280;40928;51.076;7.950;2023-06-26T07:42:09;97014.28;;;20.88;86.11
55032;BME280;40928;51.076;7.950;2023-06-26T07:44:34;96995.84;;;20.99;84.91
55032;BME280;40928;51.076;7.950;2023-06-26T07:47:00;96981.22;;;21.09;83.81
55032;BME280;40928;51.076;7.950;2023-06-26T07:49:25;96983.13;;;21.08;83.69
55032;BME280;40928;51.076;7.950;2023-06-26T07:51:51;96997.97;;;21.11;83.71
55032;BME280;40928;51.076;7.950;2023-06-26T07:54:17;96998.19;;;21.14;84.07
55032;BME280;40928;51.076;7.950;2023-06-26T07:57:00;96994.44;;;21.24;84.60
55032;BME280;40928;51.076;7.950;2023-06-26T07:59:27;96987.25;;;21.28;84.09
55032;BME280;40928;51.076;7.950;2023-06-26T08:01:54;96997.44;;;21.23;84.79
55032;BME280;40928;51.076;7.950;2023-06-26T08:04:22;97006.09;;;21.25;84.29
55032;BME280;40928;51.076;7.950;2023-06-26T08:06:49;97022.88;;;21.27;84.57
55032;BME280;40928;51.076;7.950;2023-06-26T08:09:17;97026.88;;;21.29;84.78
55032;BME280;40928;51.076;7.950;2023-06-26T08:11:44;97025.47;;;21.32;85.21
55032;BME280;40928;51.076;7.950;2023-06-26T08:14:10;97027.91;;;21.20;85.36
55032;BME280;40928;51.076;7.950;2023-06-26T08:16:38;97028.91;;;21.24;86.20
55032;BME280;40928;51.076;7.950;2023-06-26T08:19:04;97028.31;;;21.27;86.94
55032;BME280;40928;51.076;7.950;2023-06-26T08:21:29;97030.97;;;21.41;87.08
55032;BME280;40928;51.076;7.950;2023-06-26T08:23:55;97022.84;;;21.50;86.39
55032;BME280;40928;51.076;7.950;2023-06-26T08:26:20;97030.78;;;21.60;85.43
55032;BME280;40928;51.076;7.950;2023-06-26T08:28:46;97041.41;;;21.48;85.84
55032;BME280;40928;51.076;7.950;2023-06-26T08:31:12;97037.63;;;21.35;84.54
55032;BME280;40928;51.076;7.950;2023-06-26T08:33:37;97032.44;;;21.24;86.00
55032;BME280;40928;51.076;7.950;2023-06-26T08:36:03;97033.50;;;21.14;87.07
55032;BME280;40928;51.076;7.950;2023-06-26T08:38:28;97032.00;;;21.08;87.16
55032;BME280;40928;51.076;7.950;2023-06-26T08:40:54;97025.06;;;21.02;87.67
55032;BME280;40928;51.076;7.950;2023-06-26T08:43:19;97031.50;;;21.06;88.28
55032;BME280;40928;51.076;7.950;2023-06-26T08:45:47;97029.94;;;20.91;88.73
55032;BME280;40928;51.076;7.950;2023-06-26T08:48:17;97032.81;;;21.09;86.45
55032;BME280;40928;51.076;7.950;2023-06-26T08:50:44;97044.03;;;21.16;85.39
55032;BME280;40928;51.076;7.950;2023-06-26T08:53:15;97050.34;;;21.25;83.93
55032;BME280;40928;51.076;7.950;2023-06-26T08:55:46;97059.72;;;21.42;85.21
55032;BME280;40928;51.076;7.950;2023-06-26T08:58:14;97057.25;;;21.54;85.21
55032;BME280;40928;51.076;7.950;2023-06-26T09:00:40;97065.84;;;21.48;83.11
55032;BME280;40928;51.076;7.950;2023-06-26T09:03:06;97069.09;;;21.58;85.08
55032;BME280;40928;51.076;7.950;2023-06-26T09:05:32;97066.66;;;21.71;83.78
55032;BME280;40928;51.076;7.950;2023-06-26T09:07:58;97075.34;;;21.82;82.48
55032;BME280;40928;51.076;7.950;2023-06-26T09:10:24;97062.13;;;21.89;82.03
55032;BME280;40928;51.076;7.950;2023-06-26T09:12:50;97061.09;;;22.08;83.66
55032;BME280;40928;51.076;7.950;2023-06-26T09:15:19;97069.78;;;22.18;82.39
55032;BME280;40928;51.076;7.950;2023-06-26T09:17:45;97077.00;;;22.23;79.15
55032;BME280;40928;51.076;7.950;2023-06-26T09:20:12;97081.97;;;22.30;79.17
55032;BME280;40928;51.076;7.950;2023-06-26T09:22:42;97081.16;;;22.29;78.70
55032;BME280;40928;51.076;7.950;2023-06-26T09:25:09;97073.75;;;22.12;78.41
55032;BME280;40928;51.076;7.950;2023-06-26T09:27:35;97077.75;;;22.15;79.17
55032;BME280;40928;51.076;7.950;2023-06-26T09:30:02;97073.38;;;22.05;81.27
55032;BME280;40928;51.076;7.950;2023-06-26T09:32:29;97087.97;;;22.09;82.00
55032;BME280;40928;51.076;7.950;2023-06-26T09:34:54;97079.66;;;21.83;76.08
55032;BME280;40928;51.076;7.950;2023-06-26T09:37:26;97082.31;;;21.74;77.39
55032;BME280;40928;51.076;7.950;2023-06-26T09:39:52;97092.97;;;21.84;76.60
55032;BME280;40928;51.076;7.950;2023-06-26T09:42:19;97088.47;;;21.88;75.64
55032;BME280;40928;51.076;7.950;2023-06-26T09:44:46;97092.69;;;21.95;75.57
55032;BME280;40928;51.076;7.950;2023-06-26T09:47:11;97086.69;;;22.07;76.24
55032;BME280;40928;51.076;7.950;2023-06-26T09:49:44;97097.06;;;22.04;74.12
55032;BME280;40928;51.076;7.950;2023-06-26T09:52:10;97088.69;;;21.92;74.69
55032;BME280;40928;51.076;7.950;2023-06-26T09:54:38;97095.34;;;21.86;75.92
55032;BME280;40928;51.076;7.950;2023-06-26T09:57:17;97101.94;;;21.62;76.21
55032;BME280;40928;51.076;7.950;2023-06-26T09:59:44;97103.94;;;21.56;76.32
55032;BME280;40928;51.076;7.950;2023-06-26T10:02:13;97094.63;;;21.49;75.97
55032;BME280;40928;51.076;7.950;2023-06-26T10:04:38;97094.06;;;21.38;74.93
55032;BME280;40928;51.076;7.950;2023-06-26T10:07:06;97099.66;;;21.41;76.11
55032;BME280;40928;51.076;7.950;2023-06-26T10:09:32;97096.34;;;21.44;76.96
55032;BME280;40928;51.076;7.950;2023-06-26T10:12:11;97093.47;;;21.50;78.82
55032;BME280;40928;51.076;7.950;2023-06-26T10:14:39;97096.09;;;21.55;76.51
55032;BME280;40928;51.076;7.950;2023-06-26T10:17:09;97095.31;;;21.77;73.38
55032;BME280;40928;51.076;7.950;2023-06-26T10:19:37;97091.34;;;21.83;72.52
55032;BME280;40928;51.076;7.950;2023-06-26T10:22:04;97091.41;;;21.92;70.42
55032;BME280;40928;51.076;7.950;2023-06-26T10:24:35;97092.53;;;21.91;69.92
55032;BME280;40928;51.076;7.950;2023-06-26T10:27:06;97093.19;;;21.97;71.20
55032;BME280;40928;51.076;7.950;2023-06-26T10:29:35;97105.50;;;21.94;70.43
55032;BME280;40928;51.076;7.950;2023-06-26T10:32:03;97098.56;;;21.88;71.58
55032;BME280;40928;51.076;7.950;2023-06-26T10:34:29;97102.06;;;22.11;69.27
55032;BME280;40928;51.076;7.950;2023-06-26T10:37:02;97091.84;;;22.17;69.41
55032;BME280;40928;51.076;7.950;2023-06-26T10:39:51;97094.38;;;22.13;65.78
55032;BME280;40928;51.076;7.950;2023-06-26T10:42:34;97109.66;;;22.00;65.26
55032;BME280;40928;51.076;7.950;2023-06-26T10:45:19;97114.09;;;21.87;66.29
55032;BME280;40928;51.076;7.950;2023-06-26T10:47:47;97115.59;;;22.02;67.85
55032;BME280;40928;51.076;7.950;2023-06-26T10:50:28;97118.81;;;22.04;67.55
55032;BME280;40928;51.076;7.950;2023-06-26T10:53:15;97116.19;;;22.22;65.84
55032;BME280;40928;51.076;7.950;2023-06-26T10:56:05;97116.44;;;22.12;65.06
55032;BME280;40928;51.076;7.950;2023-06-26T10:58:40;97108.47;;;22.15;65.82
55032;BME280;40928;51.076;7.950;2023-06-26T11:01:22;97108.91;;;22.40;65.70
55032;BME280;40928;51.076;7.950;2023-06-26T11:04:04;97111.25;;;22.64;62.45
55032;BME280;40928;51.076;7.950;2023-06-26T11:06:31;97101.41;;;22.95;62.09
55032;BME280;40928;51.076;7.950;2023-06-26T11:09:08;97101.16;;;23.32;60.49
55032;BME280;40928;51.076;7.950;2023-06-26T11:14:23;97126.28;;;23.90;61.77
55032;BME280;40928;51.076;7.950;2023-06-26T11:16:49;97126.75;;;24.01;55.52
55032;BME280;40928;51.076;7.950;2023-06-26T11:19:17;97134.78;;;23.71;55.74
55032;BME280;40928;51.076;7.950;2023-06-26T11:21:43;97111.97;;;23.84;55.41
55032;BME280;40928;51.076;7.950;2023-06-26T11:24:10;97119.84;;;23.95;55.12
55032;BME280;40928;51.076;7.950;2023-06-26T11:26:44;97125.28;;;24.12;53.29
55032;BME280;40928;51.076;7.950;2023-06-26T11:29:10;97129.31;;;23.97;53.20
55032;BME280;40928;51.076;7.950;2023-06-26T11:31:38;97136.53;;;23.67;49.02
55032;BME280;40928;51.076;7.950;2023-06-26T11:34:06;97135.44;;;23.33;51.44
55032;BME280;40928;51.076;7.950;2023-06-26T11:36:39;97137.13;;;23.11;52.01
55032;BME280;40928;51.076;7.950;2023-06-26T11:39:07;97133.00;;;23.22;52.39
55032;BME280;40928;51.076;7.950;2023-06-26T11:41:35;97118.06;;;23.11;53.11
55032;BME280;40928;51.076;7.950;2023-06-26T11:44:01;97120.84;;;23.29;53.75
55032;BME280;40928;51.076;7.950;2023-06-26T11:46:28;97115.38;;;23.20;52.75
55032;BME280;40928;51.076;7.950;2023-06-26T11:48:54;97124.84;;;23.22;53.16
55032;BME280;40928;51.076;7.950;2023-06-26T11:51:20;97132.06;;;23.36;52.49
55032;BME280;40928;51.076;7.950;2023-06-26T11:53:46;97137.03;;;23.69;50.98
55032;BME280;40928;51.076;7.950;2023-06-26T11:56:16;97143.44;;;23.55;50.04
55032;BME280;40928;51.076;7.950;2023-06-26T12:01:27;97145.03;;;23.39;51.61
55032;BME280;40928;51.076;7.950;2023-06-26T12:03:59;97142.31;;;23.39;51.61
55032;BME280;40928;51.076;7.950;2023-06-26T12:06:26;97141.50;;;23.21;50.75
55032;BME280;40928;51.076;7.950;2023-06-26T12:08:51;97141.66;;;23.24;52.43
55032;BME280;40928;51.076;7.950;2023-06-26T12:11:17;97148.72;;;23.25;52.04
55032;BME280;40928;51.076;7.950;2023-06-26T12:13:43;97152.41;;;23.21;49.87
55032;BME280;40928;51.076;7.950;2023-06-26T12:16:09;97152.09;;;23.22;51.15
55032;BME280;40928;51.076;7.950;2023-06-26T12:18:35;97150.34;;;23.44;50.81
55032;BME280;40928;51.076;7.950;2023-06-26T12:21:01;97153.06;;;23.44;50.78
55032;BME280;40928;51.076;7.950;2023-06-26T12:23:33;97144.75;;;23.49;51.95
55032;BME280;40928;51.076;7.950;2023-06-26T12:26:20;97141.06;;;23.63;50.23
55032;BME280;40928;51.076;7.950;2023-06-26T12:28:46;97144.75;;;23.40;49.17
55032;BME280;40928;51.076;7.950;2023-06-26T12:31:15;97148.75;;;23.43;48.98
55032;BME280;40928;51.076;7.950;2023-06-26T12:33:44;97150.66;;;23.51;50.03
55032;BME280;40928;51.076;7.950;2023-06-26T12:36:11;97147.78;;;23.65;50.04
55032;BME280;40928;51.076;7.950;2023-06-26T12:38:37;97156.78;;;23.66;49.21
55032;BME280;40928;51.076;7.950;2023-06-26T12:41:02;97152.44;;;23.82;48.89
55032;BME280;40928;51.076;7.950;2023-06-26T12:43:28;97154.69;;;23.98;47.54
55032;BME280;40928;51.076;7.950;2023-06-26T12:45:55;97143.44;;;23.91;46.56
55032;BME280;40928;51.076;7.950;2023-06-26T12:48:21;97154.63;;;24.15;47.34
55032;BME280;40928;51.076;7.950;2023-06-26T12:50:47;97159.16;;;24.02;48.57
55032;BME280;40928;51.076;7.950;2023-06-26T12:53:13;97160.63;;;23.82;49.53
55032;BME280;40928;51.076;7.950;2023-06-26T12:55:38;97162.88;;;23.71;50.49
55032;BME280;40928;51.076;7.950;2023-06-26T12:58:04;97163.63;;;23.28;52.00
55032;BME280;40928;51.076;7.950;2023-06-26T13:00:29;97164.31;;;23.42;53.44
55032;BME280;40928;51.076;7.950;2023-06-26T13:02:57;97161.25;;;23.35;52.52
55032;BME280;40928;51.076;7.950;2023-06-26T13:05:23;97160.88;;;23.19;53.20
55032;BME280;40928;51.076;7.950;2023-06-26T13:07:49;97168.22;;;23.10;53.54